Natashquan, Canada
Current Conditions -  °F | °C
As of 7:00 AM on Sunday 23 Nov 2014 (Local Time) from CYNA Reporting Station
Overcast Overcast  
Wind Chill: 20°   Ceiling: 7000
Heat Index: 30°   Visibility: 9mi
Dew Point: 27°   Wind: 13mph
Humidity: 86%   Direction: 280°W
Pressure: 29.58"   Gusts: 18mph
Location:  50.13°N, 61.8°W
Report Text: CYNA 231100Z AUTO 28011G16KT 9SM OVC070 M01/M03 A2958 RMK SLP018
Loading
Personal Weather Stations






























Interactive Weather Map New forecast layout! Learn more

10-Day Weather Forecast

Advertisements
Track Severe Weather on mobile